Sarfaq Ittuk — OWDD — position and weather

sailwx.info

Track history (hours):
 
Tides and Currents Weather Stations Pressure Air Temp Water Temp Dewpoint Dewpoint Depression Visibility Wind Speed Wind Dir Waves Ship Positions

Sarfaq Ittuk

Last reported at 2017-Dec-09 06:51 UTC. Time now 2017-Dec-14 10:06 UTC.
Position N 65°05' W 052°49'.

Length 73 m; beam 11.1 m; draft 3.7 m.

Type: Passenger vessel. MMSI: 331000499.

Date/timePositionNaut miles runAvg speedWind from/ knotsBaromVisibWave heightAir tempDewpointWater temp
2017-Dec-09 06:51N 65°05' W 052°49'410.4
2017-Dec-09 06:30N 65°02' W 052°47'510.3
2017-Dec-09 06:00N 64°57' W 052°45'510.1
2017-Dec-09 05:30N 64°52' W 052°43'510.2
2017-Dec-09 05:01N 64°47' W 052°41'510.0
2017-Dec-09 04:31N 64°42' W 052°38'510.1
2017-Dec-09 04:00N 64°37' W 052°36'510.2
2017-Dec-09 03:31N 64°32' W 052°34'510.4
2017-Dec-09 03:00N 64°27' W 052°32'5 9.5
2017-Dec-09 02:31N 64°22' W 052°29'510.3
2017-Dec-09 02:00N 64°17' W 052°26'510.3
2017-Dec-09 01:30N 64°12' W 052°23'510.1
2017-Dec-09 01:00N 64°08' W 052°17'5 9.8
2017-Dec-09 00:30N 64°04' W 052°10'5 9.0
2017-Dec-09 00:00N 64°06' W 052°01'510.3
2017-Dec-08 23:30N 64°08' W 051°51'4 7.8
2017-Dec-08 23:00N 64°10' W 051°43'0 0.0
2017-Dec-08 22:30N 64°10' W 051°43'0 0.0
2017-Dec-08 22:00N 64°10' W 051°43'0 0.0
2017-Dec-08 21:30N 64°10' W 051°43'0 0.0
2017-Dec-08 21:00N 64°10' W 051°43'0 0.0
2017-Dec-08 20:31N 64°10' W 051°43'0 0.0
2017-Dec-08 20:00N 64°10' W 051°43'0 0.0
2017-Dec-08 19:30N 64°10' W 051°43'0 0.0
2017-Dec-08 19:00N 64°10' W 051°43'0 0.0
2017-Dec-08 18:30N 64°10' W 051°43'0 0.0
2017-Dec-08 18:00N 64°10' W 051°43'0 0.0
2017-Dec-08 17:30N 64°10' W 051°43'0 0.0
2017-Dec-08 17:01N 64°10' W 051°43'0 0.0
2017-Dec-08 16:31N 64°10' W 051°43'0 0.0
2017-Dec-08 16:00N 64°10' W 051°43'0 0.0
2017-Dec-08 15:30N 64°10' W 051°43'0 0.0
2017-Dec-08 15:00N 64°10' W 051°43'0 0.0
2017-Dec-08 14:30N 64°10' W 051°43'0 0.0
2017-Dec-08 14:00N 64°10' W 051°43'0 0.0
2017-Dec-08 13:30N 64°10' W 051°43'0 0.0
2017-Dec-08 13:00N 64°10' W 051°43'0 0.0
2017-Dec-08 12:30N 64°10' W 051°43'0 0.0
2017-Dec-08 12:00N 64°10' W 051°43'0 0.0
2017-Dec-08 11:30N 64°10' W 051°43'0 0.0
2017-Dec-08 11:00N 64°10' W 051°43'0 0.0
2017-Dec-08 10:30N 64°10' W 051°43'2 3.8
2017-Dec-08 10:00N 64°09' W 051°42'4 7.3
2017-Dec-08 09:31N 64°05' W 051°39'4 7.3
2017-Dec-08 09:00N 64°01' W 051°40'710.4
2017-Dec-08 08:21N 63°55' W 051°33'411.4
2017-Dec-08 08:00N 63°51' W 051°34'611.1
2017-Dec-08 07:30N 63°46' W 051°36'  
2017-Dec-02 07:00N 65°07' W 052°50'5 9.5
2017-Dec-02 06:30N 65°02' W 052°47'5 9.9
2017-Dec-02 06:00N 64°57' W 052°45'5 9.9
2017-Dec-02 05:31N 64°52' W 052°43'5 9.7
2017-Dec-02 05:00N 64°48' W 052°41'5 9.2
2017-Dec-02 04:30N 64°43' W 052°39'4 8.9
2017-Dec-02 04:00N 64°39' W 052°37'510.1
2017-Dec-02 03:30N 64°34' W 052°35'510.2
2017-Dec-02 03:00N 64°29' W 052°33'510.6
2017-Dec-02 02:30N 64°23' W 052°30'510.5
2017-Dec-02 02:00N 64°18' W 052°27'510.3
2017-Dec-02 01:30N 64°13' W 052°24'510.3
2017-Dec-02 01:01N 64°09' W 052°19'611.1
2017-Dec-02 00:31N 64°04' W 052°12'5 9.5
2017-Dec-02 00:00N 64°05' W 052°01'510.8
2017-Dec-01 23:30N 64°08' W 051°50'4 7.4
2017-Dec-01 23:00N 64°10' W 051°43'0 0.0
2017-Dec-01 22:30N 64°10' W 051°43'0 0.0
2017-Dec-01 22:00N 64°10' W 051°43'0 0.0
2017-Dec-01 21:30N 64°10' W 051°43'0 0.0
2017-Dec-01 21:01N 64°10' W 051°43'0 0.0
2017-Dec-01 20:30N 64°10' W 051°43'0 0.0
2017-Dec-01 20:00N 64°10' W 051°43'0 0.0
2017-Dec-01 19:30N 64°10' W 051°43'0 0.0
2017-Dec-01 19:00N 64°10' W 051°43'0 0.0
2017-Dec-01 18:30N 64°10' W 051°43'0 0.0
2017-Dec-01 18:00N 64°10' W 051°43'0 0.0
2017-Dec-01 17:30N 64°10' W 051°43'0 0.0
2017-Dec-01 17:00N 64°10' W 051°43'0 0.0
2017-Dec-01 16:30N 64°10' W 051°43'0 0.0
2017-Dec-01 16:01N 64°10' W 051°43'0 0.0
2017-Dec-01 15:30N 64°10' W 051°43'0 0.0
2017-Dec-01 15:01N 64°10' W 051°43'0 0.0
2017-Dec-01 14:30N 64°10' W 051°43'0 0.0
2017-Dec-01 14:00N 64°10' W 051°43'0 0.0
2017-Dec-01 13:30N 64°10' W 051°43'0 0.0
2017-Dec-01 13:00N 64°10' W 051°43'0 0.0
2017-Dec-01 12:30N 64°10' W 051°43'0 0.0
2017-Dec-01 12:00N 64°10' W 051°43'0 0.0
2017-Dec-01 11:30N 64°10' W 051°43'0 0.0
2017-Dec-01 11:00N 64°10' W 051°43'0 0.0
2017-Dec-01 10:30N 64°10' W 051°43'3 6.2
2017-Dec-01 10:00N 64°08' W 051°40'510.4
2017-Dec-01 09:31N 64°02' W 051°39'5 9.4
2017-Dec-01 08:59N 63°57' W 051°37'5 9.8
2017-Dec-01 08:31N 63°53' W 051°34'510.2
2017-Dec-01 08:00N 63°48' W 051°35'510.3
2017-Dec-01 07:30N 63°43' W 051°37'  
Track history (hours):
 
Tides and Currents Weather Stations Pressure Air Temp Water Temp Dewpoint Dewpoint Depression Visibility Wind Speed Wind Dir Waves Ship Positions

Sarfaq Ittuk

Last reported at 2017-Dec-09 06:51 UTC. Time now 2017-Dec-14 10:06 UTC.
Position N 65°05' W 052°49'.

Length 73 m; beam 11.1 m; draft 3.7 m.

Type: Passenger vessel. MMSI: 331000499.

Date/timePositionNaut miles runAvg speedWind from/ knotsBaromVisibWave heightAir tempDewpointWater temp
2017-Dec-09 06:51N 65°05' W 052°49'410.4
2017-Dec-09 06:30N 65°02' W 052°47'510.3
2017-Dec-09 06:00N 64°57' W 052°45'510.1
2017-Dec-09 05:30N 64°52' W 052°43'510.2
2017-Dec-09 05:01N 64°47' W 052°41'510.0
2017-Dec-09 04:31N 64°42' W 052°38'510.1
2017-Dec-09 04:00N 64°37' W 052°36'510.2
2017-Dec-09 03:31N 64°32' W 052°34'510.4
2017-Dec-09 03:00N 64°27' W 052°32'5 9.5
2017-Dec-09 02:31N 64°22' W 052°29'510.3
2017-Dec-09 02:00N 64°17' W 052°26'510.3
2017-Dec-09 01:30N 64°12' W 052°23'510.1
2017-Dec-09 01:00N 64°08' W 052°17'5 9.8
2017-Dec-09 00:30N 64°04' W 052°10'5 9.0
2017-Dec-09 00:00N 64°06' W 052°01'510.3
2017-Dec-08 23:30N 64°08' W 051°51'4 7.8
2017-Dec-08 23:00N 64°10' W 051°43'0 0.0
2017-Dec-08 22:30N 64°10' W 051°43'0 0.0
2017-Dec-08 22:00N 64°10' W 051°43'0 0.0
2017-Dec-08 21:30N 64°10' W 051°43'0 0.0
2017-Dec-08 21:00N 64°10' W 051°43'0 0.0
2017-Dec-08 20:31N 64°10' W 051°43'0 0.0
2017-Dec-08 20:00N 64°10' W 051°43'0 0.0
2017-Dec-08 19:30N 64°10' W 051°43'0 0.0
2017-Dec-08 19:00N 64°10' W 051°43'0 0.0
2017-Dec-08 18:30N 64°10' W 051°43'0 0.0
2017-Dec-08 18:00N 64°10' W 051°43'0 0.0
2017-Dec-08 17:30N 64°10' W 051°43'0 0.0
2017-Dec-08 17:01N 64°10' W 051°43'0 0.0
2017-Dec-08 16:31N 64°10' W 051°43'0 0.0
2017-Dec-08 16:00N 64°10' W 051°43'0 0.0
2017-Dec-08 15:30N 64°10' W 051°43'0 0.0
2017-Dec-08 15:00N 64°10' W 051°43'0 0.0
2017-Dec-08 14:30N 64°10' W 051°43'0 0.0
2017-Dec-08 14:00N 64°10' W 051°43'0 0.0
2017-Dec-08 13:30N 64°10' W 051°43'0 0.0
2017-Dec-08 13:00N 64°10' W 051°43'0 0.0
2017-Dec-08 12:30N 64°10' W 051°43'0 0.0
2017-Dec-08 12:00N 64°10' W 051°43'0 0.0
2017-Dec-08 11:30N 64°10' W 051°43'0 0.0
2017-Dec-08 11:00N 64°10' W 051°43'0 0.0
2017-Dec-08 10:30N 64°10' W 051°43'2 3.8
2017-Dec-08 10:00N 64°09' W 051°42'4 7.3
2017-Dec-08 09:31N 64°05' W 051°39'4 7.3
2017-Dec-08 09:00N 64°01' W 051°40'710.4
2017-Dec-08 08:21N 63°55' W 051°33'411.4
2017-Dec-08 08:00N 63°51' W 051°34'611.1
2017-Dec-08 07:30N 63°46' W 051°36'  
2017-Dec-02 07:00N 65°07' W 052°50'5 9.5
2017-Dec-02 06:30N 65°02' W 052°47'5 9.9
2017-Dec-02 06:00N 64°57' W 052°45'5 9.9
2017-Dec-02 05:31N 64°52' W 052°43'5 9.7
2017-Dec-02 05:00N 64°48' W 052°41'5 9.2
2017-Dec-02 04:30N 64°43' W 052°39'4 8.9
2017-Dec-02 04:00N 64°39' W 052°37'510.1
2017-Dec-02 03:30N 64°34' W 052°35'510.2
2017-Dec-02 03:00N 64°29' W 052°33'510.6
2017-Dec-02 02:30N 64°23' W 052°30'510.5
2017-Dec-02 02:00N 64°18' W 052°27'510.3
2017-Dec-02 01:30N 64°13' W 052°24'510.3
2017-Dec-02 01:01N 64°09' W 052°19'611.1
2017-Dec-02 00:31N 64°04' W 052°12'5 9.5
2017-Dec-02 00:00N 64°05' W 052°01'510.8
2017-Dec-01 23:30N 64°08' W 051°50'4 7.4
2017-Dec-01 23:00N 64°10' W 051°43'0 0.0
2017-Dec-01 22:30N 64°10' W 051°43'0 0.0
2017-Dec-01 22:00N 64°10' W 051°43'0 0.0
2017-Dec-01 21:30N 64°10' W 051°43'0 0.0
2017-Dec-01 21:01N 64°10' W 051°43'0 0.0
2017-Dec-01 20:30N 64°10' W 051°43'0 0.0
2017-Dec-01 20:00N 64°10' W 051°43'0 0.0
2017-Dec-01 19:30N 64°10' W 051°43'0 0.0
2017-Dec-01 19:00N 64°10' W 051°43'0 0.0
2017-Dec-01 18:30N 64°10' W 051°43'0 0.0
2017-Dec-01 18:00N 64°10' W 051°43'0 0.0
2017-Dec-01 17:30N 64°10' W 051°43'0 0.0
2017-Dec-01 17:00N 64°10' W 051°43'0 0.0
2017-Dec-01 16:30N 64°10' W 051°43'0 0.0
2017-Dec-01 16:01N 64°10' W 051°43'0 0.0
2017-Dec-01 15:30N 64°10' W 051°43'0 0.0
2017-Dec-01 15:01N 64°10' W 051°43'0 0.0
2017-Dec-01 14:30N 64°10' W 051°43'0 0.0
2017-Dec-01 14:00N 64°10' W 051°43'0 0.0
2017-Dec-01 13:30N 64°10' W 051°43'0 0.0
2017-Dec-01 13:00N 64°10' W 051°43'0 0.0
2017-Dec-01 12:30N 64°10' W 051°43'0 0.0
2017-Dec-01 12:00N 64°10' W 051°43'0 0.0
2017-Dec-01 11:30N 64°10' W 051°43'0 0.0
2017-Dec-01 11:00N 64°10' W 051°43'0 0.0
2017-Dec-01 10:30N 64°10' W 051°43'3 6.2
2017-Dec-01 10:00N 64°08' W 051°40'510.4
2017-Dec-01 09:31N 64°02' W 051°39'5 9.4
2017-Dec-01 08:59N 63°57' W 051°37'5 9.8
2017-Dec-01 08:31N 63°53' W 051°34'510.2
2017-Dec-01 08:00N 63°48' W 051°35'510.3
2017-Dec-01 07:30N 63°43' W 051°37'  

Dump ship's entire track history